Time;durP1;ratioP1;P1;durP2;ratioP2;P2;SDS_P1;SDS_P2;PMS_P1;PMS_P2;Temp;Humidity;BMP_temperature;BMP_pressure;BME280_temperature;BME280_humidity;BME280_pressure;Samples;Min_cycle;Max_cycle;Signal;HPM_P1;HPM_P2
2022/03/20 00:01:05;;;;;;;15.20;12.40;;;8.30;49.00;;;;;;5051562;28;20576;-75
2022/03/20 00:03:32;;;;;;;12.83;11.07;;;8.30;48.80;;;;;;5052086;28;20572;-75
2022/03/20 00:05:58;;;;;;;13.13;11.43;;;8.30;48.70;;;;;;5034456;28;20666;-75
2022/03/20 00:08:25;;;;;;;12.93;11.60;;;8.30;48.70;;;;;;5052406;28;20215;-74
2022/03/20 00:10:53;;;;;;;16.10;12.57;;;8.20;49.10;;;;;;5036089;28;20222;-76
2022/03/20 00:13:22;;;;;;;13.93;11.68;;;8.20;48.70;;;;;;5050297;28;20165;-75
2022/03/20 00:15:49;;;;;;;13.77;11.95;;;8.20;48.60;;;;;;5014812;28;20162;-76
2022/03/20 00:18:16;;;;;;;13.45;11.32;;;8.20;48.70;;;;;;5031459;28;20311;-75
2022/03/20 00:20:46;;;;;;;11.77;10.10;;;8.20;48.70;;;;;;5042502;28;20176;-76
2022/03/20 00:23:12;;;;;;;12.35;10.98;;;8.20;48.60;;;;;;5043513;28;20180;-75
2022/03/20 00:25:44;;;;;;;14.75;11.02;;;8.10;48.50;;;;;;5041230;28;20211;-76
2022/03/20 00:28:15;;;;;;;13.02;11.07;;;8.10;48.40;;;;;;5039596;28;20166;-75
2022/03/20 00:30:42;;;;;;;13.40;12.00;;;8.10;48.50;;;;;;5041503;28;20235;-76
2022/03/20 00:33:08;;;;;;;13.18;10.63;;;8.10;48.40;;;;;;5051125;28;20555;-75
2022/03/20 00:35:35;;;;;;;12.77;10.90;;;8.10;48.40;;;;;;5038765;28;20532;-75
2022/03/20 00:38:00;;;;;;;12.13;10.50;;;8.10;48.50;;;;;;5051748;28;20173;-76
2022/03/20 00:40:27;;;;;;;15.25;11.70;;;8.00;48.90;;;;;;5051618;28;20276;-75
2022/03/20 00:42:55;;;;;;;16.33;11.32;;;8.00;48.70;;;;;;5051721;28;20179;-74
2022/03/20 00:45:20;;;;;;;14.77;12.13;;;7.90;48.40;;;;;;5051655;28;20201;-74
2022/03/20 00:47:49;;;;;;;14.18;11.98;;;7.90;48.40;;;;;;5035949;28;20973;-74
2022/03/20 00:50:15;;;;;;;13.50;11.90;;;7.90;48.50;;;;;;5033443;28;20181;-75
2022/03/20 00:52:41;;;;;;;14.95;11.90;;;7.90;48.60;;;;;;5034020;28;20260;-74
2022/03/20 00:55:07;;;;;;;15.80;14.17;;;7.90;48.70;;;;;;5051842;28;20236;-74
2022/03/20 00:57:32;;;;;;;15.00;12.10;;;7.90;48.60;;;;;;5052127;28;20184;-74
2022/03/20 00:59:58;;;;;;;16.00;12.00;;;7.90;48.70;;;;;;5033622;28;20600;-74
2022/03/20 01:02:24;;;;;;;12.90;11.37;;;7.90;48.80;;;;;;5051789;28;20232;-74
2022/03/20 01:04:49;;;;;;;13.33;10.77;;;7.90;48.60;;;;;;5040083;28;20204;-75
2022/03/20 01:07:15;;;;;;;12.47;10.20;;;7.80;48.60;;;;;;5031799;28;20557;-75
2022/03/20 01:09:41;;;;;;;12.23;10.50;;;7.80;48.50;;;;;;5031714;28;20508;-74
2022/03/20 01:12:08;;;;;;;10.23;9.00;;;7.80;48.50;;;;;;5033339;28;20427;-75
2022/03/20 01:14:34;;;;;;;10.55;9.43;;;7.90;48.60;;;;;;5035872;28;20982;-75
2022/03/20 01:17:01;;;;;;;14.75;11.52;;;7.90;48.60;;;;;;5035983;28;20165;-75
2022/03/20 01:19:27;;;;;;;11.43;9.60;;;7.90;48.70;;;;;;5002060;28;20285;-76
2022/03/20 01:21:54;;;;;;;14.75;11.95;;;7.90;48.70;;;;;;5035883;28;20529;-75
2022/03/20 01:24:24;;;;;;;14.75;11.63;;;7.90;48.70;;;;;;5041590;28;20172;-75
2022/03/20 01:26:50;;;;;;;12.82;11.52;;;8.00;48.80;;;;;;5018584;28;20232;-75
2022/03/20 01:29:16;;;;;;;11.32;10.10;;;8.00;48.70;;;;;;5001959;28;20181;-75
2022/03/20 01:31:41;;;;;;;13.63;10.77;;;8.00;49.30;;;;;;5017891;28;20166;-75
2022/03/20 01:34:07;;;;;;;16.60;12.00;;;8.10;48.70;;;;;;5036131;28;20348;-76
2022/03/20 01:36:33;;;;;;;11.60;10.37;;;8.10;48.70;;;;;;5035990;28;20172;-75
2022/03/20 01:38:59;;;;;;;14.75;12.88;;;8.10;48.80;;;;;;5035222;28;20202;-75
2022/03/20 01:41:25;;;;;;;13.90;11.87;;;8.10;48.70;;;;;;5034973;28;20656;-75
2022/03/20 01:43:55;;;;;;;13.53;11.20;;;8.10;48.70;;;;;;5034888;28;20591;-75
2022/03/20 01:46:22;;;;;;;12.90;10.10;;;8.10;48.50;;;;;;5017101;28;20639;-76
2022/03/20 01:48:49;;;;;;;11.80;10.25;;;8.10;48.50;;;;;;5034778;28;20201;-75
2022/03/20 01:51:15;;;;;;;13.45;12.13;;;8.10;48.50;;;;;;5013362;28;20185;-75
2022/03/20 01:53:42;;;;;;;10.50;9.38;;;8.10;48.30;;;;;;5032747;28;20165;-75
2022/03/20 01:56:08;;;;;;;14.65;11.00;;;8.10;48.30;;;;;;5017211;28;20166;-75
2022/03/20 01:58:34;;;;;;;14.52;10.40;;;8.10;48.30;;;;;;5034630;28;20190;-75
2022/03/20 02:01:02;;;;;;;12.45;9.93;;;8.10;48.30;;;;;;5036816;28;20602;-75
2022/03/20 02:03:30;;;;;;;11.85;9.65;;;8.10;48.20;;;;;;5016615;28;20575;-75
2022/03/20 02:05:56;;;;;;;11.68;9.77;;;8.10;48.20;;;;;;5000667;28;20286;-75
2022/03/20 02:08:25;;;;;;;14.10;10.88;;;8.20;48.20;;;;;;5034194;28;20219;-75
2022/03/20 02:10:55;;;;;;;12.35;10.60;;;8.20;48.20;;;;;;5016308;28;20319;-75
2022/03/20 02:13:24;;;;;;;13.05;10.52;;;8.20;48.20;;;;;;5034262;28;20162;-75
2022/03/20 02:15:51;;;;;;;11.32;10.13;;;8.20;48.20;;;;;;5034479;28;20174;-75
2022/03/20 02:18:18;;;;;;;12.55;10.15;;;8.20;48.10;;;;;;5034178;28;20200;-75
2022/03/20 02:20:48;;;;;;;12.13;10.20;;;8.20;48.10;;;;;;5033523;28;20184;-75
2022/03/20 02:23:15;;;;;;;10.13;9.02;;;8.20;48.10;;;;;;5033470;28;20261;-75
2022/03/20 02:25:51;;;;;;;13.07;10.60;;;8.20;48.00;;;;;;5033862;28;20203;-75
2022/03/20 02:28:18;;;;;;;11.25;9.88;;;8.10;48.00;;;;;;5018636;28;20174;-74
2022/03/20 02:30:45;;;;;;;12.05;10.80;;;8.20;48.10;;;;;;5034863;28;20181;-74
2022/03/20 02:33:11;;;;;;;12.15;10.95;;;8.10;48.00;;;;;;5034595;28;20244;-75
2022/03/20 02:35:37;;;;;;;11.37;10.17;;;8.20;48.00;;;;;;5034798;28;20257;-74
2022/03/20 02:38:03;;;;;;;11.98;10.43;;;8.20;48.00;;;;;;5036558;28;20207;-74
2022/03/20 02:40:29;;;;;;;12.10;10.63;;;8.20;48.00;;;;;;5033814;28;20530;-75
2022/03/20 02:42:54;;;;;;;12.63;11.33;;;8.20;48.00;;;;;;5016020;28;20307;-74
2022/03/20 02:45:23;;;;;;;10.67;9.57;;;8.20;48.00;;;;;;5033647;28;20627;-75
2022/03/20 02:47:51;;;;;;;13.38;10.82;;;8.20;48.00;;;;;;5015906;28;20256;-74
2022/03/20 02:50:19;;;;;;;11.48;9.75;;;8.20;47.90;;;;;;5033054;28;20189;-75
2022/03/20 02:52:48;;;;;;;12.23;11.00;;;8.20;48.00;;;;;;5033620;28;20205;-75
2022/03/20 02:55:17;;;;;;;11.15;10.05;;;8.20;47.90;;;;;;5033469;28;20181;-75
2022/03/20 02:57:44;;;;;;;13.38;11.13;;;8.20;47.90;;;;;;5033492;28;20180;-75
2022/03/20 03:00:11;;;;;;;11.80;9.05;;;8.20;47.80;;;;;;4998666;28;20312;-75
2022/03/20 03:02:42;;;;;;;12.45;10.80;;;8.20;47.80;;;;;;5015548;28;20259;-74
2022/03/20 03:05:08;;;;;;;12.20;10.13;;;8.20;47.70;;;;;;5033245;28;20701;-75
2022/03/20 03:13:10;;;;;;;9.70;8.80;;;8.10;47.70;;;;;;5033163;28;20165;-75
2022/03/20 03:15:36;;;;;;;11.55;9.10;;;8.10;47.70;;;;;;5037750;28;20173;-75
2022/03/20 03:18:02;;;;;;;14.37;9.87;;;8.10;47.70;;;;;;5032764;28;20177;-74
2022/03/20 03:20:28;;;;;;;14.15;12.00;;;8.10;47.70;;;;;;5032579;28;20997;-75
2022/03/20 03:22:53;;;;;;;14.23;11.98;;;8.10;47.80;;;;;;5032896;28;20165;-74
2022/03/20 03:25:20;;;;;;;12.70;11.03;;;8.00;47.70;;;;;;5032676;28;20198;-74
2022/03/20 03:27:46;;;;;;;12.80;10.63;;;8.00;47.60;;;;;;5032716;28;20177;-75
2022/03/20 03:30:15;;;;;;;13.40;12.00;;;7.90;47.50;;;;;;5014777;28;20188;-74
2022/03/20 03:32:41;;;;;;;12.80;11.48;;;8.00;47.60;;;;;;5032861;28;20165;-74
2022/03/20 03:37:56;;;;;;;12.93;11.02;;;7.90;47.50;;;;;;5032735;28;20647;-74
2022/03/20 03:40:22;;;;;;;12.50;11.20;;;7.90;47.40;;;;;;5014548;28;20375;-75
2022/03/20 03:42:48;;;;;;;11.98;10.07;;;7.80;47.40;;;;;;5032403;28;20634;-75
2022/03/20 03:45:14;;;;;;;11.43;9.05;;;7.80;47.40;;;;;;5032262;28;20196;-75
2022/03/20 03:47:41;;;;;;;12.57;9.82;;;7.80;47.40;;;;;;5022512;28;20578;-75
2022/03/20 03:50:08;;;;;;;11.63;9.93;;;7.80;47.40;;;;;;5046476;28;20193;-75
2022/03/20 03:52:34;;;;;;;13.73;10.00;;;7.70;47.40;;;;;;5037814;28;20509;-74
2022/03/20 03:54:59;;;;;;;14.13;10.87;;;7.70;47.40;;;;;;5034417;28;20192;-75
2022/03/20 03:57:26;;;;;;;14.20;12.68;;;7.60;47.30;;;;;;5034360;28;21222;-75
2022/03/20 03:59:52;;;;;;;13.20;11.23;;;7.60;47.40;;;;;;5051683;28;20276;-75
2022/03/20 04:02:18;;;;;;;15.23;11.20;;;7.50;47.40;;;;;;5017669;28;20256;-74
2022/03/20 04:04:47;;;;;;;13.33;11.03;;;7.50;47.40;;;;;;5051985;28;21091;-75
2022/03/20 04:07:17;;;;;;;12.77;11.32;;;7.40;47.40;;;;;;5034214;28;20176;-75
2022/03/20 04:09:44;;;;;;;13.50;11.30;;;7.40;47.40;;;;;;5051423;28;20271;-74
2022/03/20 04:12:10;;;;;;;13.73;11.65;;;7.40;47.60;;;;;;5017655;28;20203;-74
2022/03/20 04:14:36;;;;;;;19.73;12.35;;;7.40;47.60;;;;;;5052070;28;20208;-74
2022/03/20 04:17:05;;;;;;;11.50;10.20;;;7.30;47.60;;;;;;5033974;28;20197;-74
2022/03/20 04:19:31;;;;;;;14.82;10.60;;;7.30;47.60;;;;;;5051665;28;20742;-74
2022/03/20 04:21:57;;;;;;;15.27;11.80;;;7.30;47.60;;;;;;5051408;28;20224;-75
2022/03/20 04:24:23;;;;;;;13.48;10.70;;;7.30;47.80;;;;;;5051836;28;20199;-74
2022/03/20 04:26:48;;;;;;;13.70;11.63;;;7.20;48.00;;;;;;5051697;28;20193;-74
2022/03/20 04:29:14;;;;;;;12.00;10.70;;;7.20;47.80;;;;;;5055039;28;20184;-74
2022/03/20 04:31:43;;;;;;;14.20;12.17;;;7.20;47.90;;;;;;5051268;28;20172;-74
2022/03/20 04:34:10;;;;;;;18.13;12.15;;;7.20;48.00;;;;;;5052080;28;20168;-79
2022/03/20 04:36:35;;;;;;;13.57;10.60;;;7.20;47.80;;;;;;5032477;28;20173;-79
2022/03/20 04:39:01;;;;;;;14.73;10.70;;;7.20;47.90;;;;;;5051265;28;20197;-78
2022/03/20 04:41:27;;;;;;;13.50;11.40;;;7.20;47.90;;;;;;5051378;28;20307;-78
2022/03/20 04:43:53;;;;;;;14.30;10.77;;;7.20;47.90;;;;;;5051747;28;20651;-79
2022/03/20 04:46:19;;;;;;;16.70;12.88;;;7.20;48.00;;;;;;5033500;28;20204;-78
2022/03/20 04:59:45;;;;;;;13.43;11.10;;;7.20;48.20;;;;;;5013329;28;20559;-79
2022/03/20 05:02:11;;;;;;;15.23;12.33;;;7.20;48.10;;;;;;5031667;28;20162;-79
2022/03/20 05:04:37;;;;;;;17.73;14.50;;;7.30;48.30;;;;;;5031495;28;20158;-79
2022/03/20 05:07:04;;;;;;;14.53;12.17;;;7.30;48.30;;;;;;5017050;28;20181;-78
2022/03/20 05:15:05;;;;;;;15.45;11.82;;;7.40;48.60;;;;;;5031398;28;20197;-78
2022/03/20 05:17:30;;;;;;;14.27;12.77;;;7.40;48.50;;;;;;5031616;28;20298;-78
2022/03/20 05:19:56;;;;;;;14.50;12.20;;;7.50;48.40;;;;;;5030861;28;20225;-78
2022/03/20 05:22:22;;;;;;;19.87;14.93;;;7.50;48.50;;;;;;5031260;28;20185;-78
2022/03/20 05:24:47;;;;;;;17.27;14.23;;;7.60;48.60;;;;;;5031103;28;20200;-78
2022/03/20 05:27:13;;;;;;;15.43;12.80;;;7.60;48.50;;;;;;5031470;28;20232;-78
2022/03/20 05:29:40;;;;;;;15.43;13.10;;;7.70;48.60;;;;;;5030952;28;20289;-79
2022/03/20 05:32:07;;;;;;;14.38;11.70;;;7.70;48.60;;;;;;5013849;28;20247;-78
2022/03/20 05:34:33;;;;;;;17.85;13.85;;;7.80;48.70;;;;;;5031427;28;20193;-78
2022/03/20 05:37:00;;;;;;;20.42;13.80;;;7.80;48.70;;;;;;5031630;28;20173;-79
2022/03/20 05:39:26;;;;;;;19.52;15.63;;;7.90;48.60;;;;;;5031618;28;20247;-79
2022/03/20 05:41:52;;;;;;;15.13;13.50;;;7.90;48.60;;;;;;5031118;28;20638;-78
2022/03/20 05:44:20;;;;;;;15.90;13.50;;;7.90;48.60;;;;;;5035301;28;20170;-78
2022/03/20 05:46:50;;;;;;;20.08;14.90;;;7.90;48.50;;;;;;5031006;28;20630;-78
2022/03/20 05:49:20;;;;;;;16.92;13.60;;;7.90;48.50;;;;;;5031161;28;20658;-78
2022/03/20 05:51:46;;;;;;;16.80;14.13;;;7.90;48.60;;;;;;5030805;28;20215;-79
2022/03/20 05:54:13;;;;;;;17.85;14.10;;;8.00;48.70;;;;;;5031163;28;20244;-78
2022/03/20 05:59:23;;;;;;;16.27;13.93;;;8.10;48.80;;;;;;5034142;28;20276;-78
2022/03/20 06:01:51;;;;;;;16.43;13.37;;;8.10;48.80;;;;;;5034696;28;20729;-79
2022/03/20 06:04:20;;;;;;;16.65;14.88;;;8.20;48.90;;;;;;5035147;28;20579;-79
2022/03/20 06:06:48;;;;;;;20.13;14.95;;;8.30;49.00;;;;;;5017189;28;20194;-78
2022/03/20 06:09:15;;;;;;;19.40;15.25;;;8.40;49.10;;;;;;5034424;28;20534;-78
2022/03/20 06:11:41;;;;;;;21.67;17.67;;;8.40;48.90;;;;;;5033966;28;20173;-79
2022/03/20 06:14:08;;;;;;;17.10;14.50;;;8.50;48.80;;;;;;5016616;28;20196;-78
2022/03/20 06:16:35;;;;;;;17.05;14.90;;;8.50;48.80;;;;;;5016642;28;20197;-78
2022/03/20 06:19:01;;;;;;;16.50;13.20;;;8.50;48.70;;;;;;5035216;28;20209;-78
2022/03/20 06:21:27;;;;;;;17.08;15.00;;;8.60;48.80;;;;;;5040649;28;20178;-79
2022/03/20 06:23:54;;;;;;;18.58;14.90;;;8.60;48.80;;;;;;5034328;28;20564;-78
2022/03/20 06:26:20;;;;;;;18.08;16.17;;;8.70;48.80;;;;;;5034284;28;20198;-78
2022/03/20 06:28:48;;;;;;;16.80;15.00;;;8.70;48.70;;;;;;5034035;28;20181;-78
2022/03/20 06:31:16;;;;;;;17.88;14.77;;;8.70;48.60;;;;;;5034267;28;20177;-78
2022/03/20 06:33:43;;;;;;;20.23;15.32;;;8.70;48.70;;;;;;5034066;28;20232;-78
2022/03/20 06:36:10;;;;;;;17.67;15.73;;;8.80;48.80;;;;;;5034137;28;20174;-78
2022/03/20 06:38:37;;;;;;;19.23;14.20;;;8.80;49.00;;;;;;5033780;28;20593;-78
2022/03/20 06:41:07;;;;;;;20.98;18.20;;;9.00;49.10;;;;;;5033491;28;20169;-78
2022/03/20 06:43:37;;;;;;;18.35;16.35;;;9.10;48.90;;;;;;5033651;28;20204;-78
2022/03/20 06:46:05;;;;;;;15.68;13.90;;;9.20;49.00;;;;;;5035995;28;20201;-78
2022/03/20 06:48:31;;;;;;;17.33;14.00;;;9.20;48.90;;;;;;5051383;28;20239;-78
2022/03/20 06:50:57;;;;;;;18.08;15.68;;;9.40;49.00;;;;;;5027167;28;20239;-78
2022/03/20 06:53:23;;;;;;;22.00;17.07;;;9.40;48.80;;;;;;5050499;28;20653;-78
2022/03/20 06:55:49;;;;;;;22.23;17.48;;;9.40;49.20;;;;;;5035799;28;20930;-78
2022/03/20 06:58:17;;;;;;;21.50;18.47;;;9.40;48.60;;;;;;5057778;28;20169;-78
2022/03/20 07:00:43;;;;;;;22.60;17.88;;;9.40;48.30;;;;;;5053591;28;20575;-78
2022/03/20 07:03:09;;;;;;;18.27;15.27;;;9.40;48.30;;;;;;5035901;28;20173;-78
2022/03/20 07:05:37;;;;;;;17.10;15.10;;;9.40;48.30;;;;;;5030811;28;20255;-78
2022/03/20 07:08:05;;;;;;;21.65;18.00;;;9.40;48.30;;;;;;5033031;28;20708;-79
2022/03/20 07:10:31;;;;;;;20.70;16.40;;;9.40;48.20;;;;;;5032472;28;20295;-80
2022/03/20 07:15:45;;;;;;;19.27;16.80;;;9.50;48.40;;;;;;5034024;28;20189;-79
2022/03/20 07:18:12;;;;;;;20.05;17.77;;;9.60;48.50;;;;;;5020342;28;20224;-79
2022/03/20 07:20:46;;;;;;;18.50;15.80;;;9.60;48.50;;;;;;5022748;28;20645;-79
2022/03/20 07:23:13;;;;;;;21.75;18.63;;;9.80;48.50;;;;;;5033087;28;20165;-79
2022/03/20 07:31:11;;;;;;;19.45;17.38;;;10.00;47.50;;;;;;5013827;28;20218;-79
2022/03/20 07:33:39;;;;;;;20.83;18.50;;;10.10;47.60;;;;;;5032227;28;20185;-79
2022/03/20 07:36:06;;;;;;;19.00;16.75;;;10.30;48.00;;;;;;5039378;28;20182;-79
2022/03/20 07:38:33;;;;;;;22.67;19.42;;;10.60;47.90;;;;;;5012553;28;20217;-79
2022/03/20 07:40:59;;;;;;;22.92;18.75;;;11.00;48.20;;;;;;5033621;28;20216;-79
2022/03/20 07:43:28;;;;;;;23.42;19.98;;;11.40;47.70;;;;;;5033963;28;20227;-79
2022/03/20 07:45:56;;;;;;;19.88;17.77;;;11.70;46.90;;;;;;5034106;28;20244;-79
2022/03/20 07:48:23;;;;;;;21.75;18.00;;;12.10;46.90;;;;;;5034666;28;20166;-78
2022/03/20 07:50:51;;;;;;;19.40;16.13;;;12.50;47.30;;;;;;5034142;28;20186;-79
2022/03/20 07:53:17;;;;;;;20.48;18.05;;;12.90;46.50;;;;;;5035618;28;20244;-79
2022/03/20 07:55:44;;;;;;;20.20;18.10;;;13.40;46.90;;;;;;5036632;28;20196;-79
2022/03/20 07:58:12;;;;;;;20.27;18.20;;;13.80;46.10;;;;;;5036693;28;20596;-79
2022/03/20 08:00:41;;;;;;;19.57;17.47;;;14.10;45.90;;;;;;5037786;28;20568;-79
2022/03/20 08:03:06;;;;;;;17.93;16.07;;;14.30;44.90;;;;;;5017510;28;20598;-78
2022/03/20 08:05:32;;;;;;;21.57;19.37;;;14.60;45.40;;;;;;5018012;28;20624;-78
2022/03/20 08:08:00;;;;;;;19.60;17.27;;;14.90;44.40;;;;;;5017421;28;20172;-77
2022/03/20 08:10:27;;;;;;;20.50;18.50;;;15.00;44.70;;;;;;5025692;28;20612;-79
2022/03/20 08:12:53;;;;;;;19.80;17.30;;;15.10;43.60;;;;;;5045532;28;20573;-78
2022/03/20 08:15:18;;;;;;;20.57;18.40;;;15.30;43.90;;;;;;5038906;28;20181;-77
2022/03/20 08:17:45;;;;;;;22.93;20.43;;;15.30;43.00;;;;;;5044907;28;20186;-77
2022/03/20 08:20:12;;;;;;;20.37;18.17;;;15.20;42.50;;;;;;5030972;28;20280;-78
2022/03/20 08:22:38;;;;;;;19.93;17.80;;;14.90;42.00;;;;;;5031931;28;20668;-78
2022/03/20 08:25:05;;;;;;;18.10;16.10;;;14.70;42.50;;;;;;5011757;28;20778;-78
2022/03/20 08:27:30;;;;;;;20.13;18.03;;;14.90;43.90;;;;;;5032392;28;20177;-78
2022/03/20 08:29:57;;;;;;;20.63;18.50;;;15.30;43.80;;;;;;5031152;28;20615;-78
2022/03/20 08:32:24;;;;;;;20.50;18.33;;;15.70;42.80;;;;;;5031953;28;20569;-78
2022/03/20 08:34:50;;;;;;;18.43;16.60;;;15.90;43.50;;;;;;5014210;28;21247;-78
2022/03/20 08:37:16;;;;;;;19.60;17.50;;;15.90;42.00;;;;;;5032038;28;20706;-78
2022/03/20 08:39:42;;;;;;;17.67;15.70;;;15.70;42.10;;;;;;5031378;28;20420;-78
2022/03/20 08:42:08;;;;;;;18.43;16.53;;;15.60;42.60;;;;;;5031970;28;20571;-78
2022/03/20 08:44:33;;;;;;;19.93;17.73;;;15.40;42.40;;;;;;5031596;28;20556;-78
2022/03/20 08:47:00;;;;;;;20.17;18.17;;;15.20;41.90;;;;;;5031797;28;20205;-78
2022/03/20 08:49:26;;;;;;;22.73;19.60;;;14.80;41.40;;;;;;5035563;28;20186;-78
2022/03/20 08:51:52;;;;;;;21.07;18.87;;;14.40;41.30;;;;;;5031531;28;20569;-78
2022/03/20 08:54:18;;;;;;;21.40;18.43;;;14.10;41.70;;;;;;5014032;28;20186;-75
2022/03/20 08:56:43;;;;;;;20.97;18.80;;;13.90;42.00;;;;;;5031637;28;20260;-75
2022/03/20 08:59:09;;;;;;;19.53;17.23;;;13.80;42.40;;;;;;5031622;28;20190;-75
2022/03/20 09:01:38;;;;;;;22.43;20.10;;;13.80;42.80;;;;;;5031341;28;20188;-75
2022/03/20 09:04:04;;;;;;;19.33;17.35;;;13.60;42.70;;;;;;5031671;28;20166;-75
2022/03/20 09:06:30;;;;;;;21.42;18.65;;;13.50;42.90;;;;;;5031625;28;20621;-75
2022/03/20 09:08:56;;;;;;;23.40;19.60;;;13.50;43.80;;;;;;5031588;28;20281;-75
2022/03/20 09:11:22;;;;;;;21.07;18.87;;;13.50;43.30;;;;;;5030302;28;20177;-74
2022/03/20 09:13:48;;;;;;;20.83;18.02;;;13.60;43.70;;;;;;5031399;28;20173;-74
2022/03/20 09:19:00;;;;;;;20.23;17.30;;;14.30;45.30;;;;;;5031305;28;20194;-74
2022/03/20 09:21:30;;;;;;;21.17;19.07;;;15.20;45.90;;;;;;5010800;28;20616;-74
2022/03/20 09:23:57;;;;;;;20.60;18.60;;;15.90;45.00;;;;;;5031046;28;20599;-74
2022/03/20 09:26:23;;;;;;;21.13;18.93;;;16.40;43.60;;;;;;5012774;28;20736;-75
2022/03/20 09:28:49;;;;;;;19.70;17.63;;;16.80;43.60;;;;;;5030329;28;20608;-74
2022/03/20 09:31:16;;;;;;;21.90;19.70;;;17.10;42.90;;;;;;5030315;28;20612;-75
2022/03/20 09:33:42;;;;;;;20.33;18.23;;;17.20;42.50;;;;;;5033488;28;20602;-74
2022/03/20 09:36:10;;;;;;;22.77;20.47;;;17.20;41.90;;;;;;5034634;28;20608;-76
2022/03/20 09:38:36;;;;;;;23.67;21.37;;;17.10;40.90;;;;;;5034445;28;20707;-75
2022/03/20 09:41:07;;;;;;;21.40;19.13;;;16.60;40.20;;;;;;5023765;28;20943;-75
2022/03/20 09:43:34;;;;;;;21.17;18.97;;;16.50;41.20;;;;;;5033006;28;20622;-75
2022/03/20 09:46:01;;;;;;;21.97;19.80;;;16.50;41.80;;;;;;5016619;28;20681;-75
2022/03/20 09:48:27;;;;;;;19.30;17.30;;;16.70;42.10;;;;;;5026806;28;20641;-75
2022/03/20 09:50:53;;;;;;;24.70;20.23;;;16.90;42.80;;;;;;5014829;28;20583;-75
2022/03/20 09:53:20;;;;;;;21.87;19.60;;;17.20;41.20;;;;;;5033521;28;20564;-75
2022/03/20 09:55:46;;;;;;;22.20;20.00;;;17.20;41.00;;;;;;5033578;28;20927;-75
2022/03/20 09:58:13;;;;;;;20.90;19.00;;;17.40;41.10;;;;;;5033384;28;21111;-75
2022/03/20 10:00:40;;;;;;;21.30;19.20;;;17.50;41.80;;;;;;5033247;28;20573;-75
2022/03/20 10:03:17;;;;;;;22.23;19.93;;;17.70;41.50;;;;;;5037722;28;20583;-75
2022/03/20 10:05:43;;;;;;;22.80;20.40;;;17.40;40.30;;;;;;5034424;28;20718;-75
2022/03/20 10:08:17;;;;;;;21.93;19.60;;;17.00;39.90;;;;;;5034290;28;20915;-75
2022/03/20 10:10:43;;;;;;;21.53;19.43;;;16.90;40.70;;;;;;5016301;28;20639;-77
2022/03/20 10:13:13;;;;;;;21.00;18.80;;;16.80;40.90;;;;;;5000418;28;20683;-75
2022/03/20 10:15:41;;;;;;;18.77;16.80;;;17.00;41.80;;;;;;5016687;28;20173;-76
2022/03/20 10:18:17;;;;;;;18.00;16.20;;;17.30;42.20;;;;;;5034376;28;20651;-76
2022/03/20 10:20:51;;;;;;;23.63;21.13;;;17.50;41.90;;;;;;5034011;28;20575;-76
2022/03/20 10:23:36;;;;;;;23.33;20.43;;;17.10;40.00;;;;;;5034883;28;20944;-75
2022/03/20 10:26:13;;;;;;;20.57;18.60;;;17.30;40.60;;;;;;5034227;28;20718;-75
2022/03/20 10:28:42;;;;;;;24.27;21.80;;;17.30;41.10;;;;;;5034029;28;20694;-75
2022/03/20 10:31:12;;;;;;;23.83;21.50;;;17.20;40.40;;;;;;5033541;28;20942;-75
2022/03/20 10:33:40;;;;;;;22.80;20.60;;;17.20;40.20;;;;;;5034139;28;20557;-75
2022/03/20 10:36:16;;;;;;;21.17;19.07;;;17.00;40.20;;;;;;5034033;28;20592;-76
2022/03/20 10:38:47;;;;;;;23.70;21.10;;;16.70;40.50;;;;;;5033707;28;20607;-75
2022/03/20 10:41:26;;;;;;;23.97;21.47;;;16.30;40.40;;;;;;5037272;28;20671;-75
2022/03/20 10:43:55;;;;;;;23.93;21.43;;;16.00;40.70;;;;;;5069939;22;20697;-78
2022/03/20 10:46:24;;;;;;;24.73;22.23;;;15.80;41.20;;;;;;5064951;28;20657;-77
2022/03/20 10:48:52;;;;;;;22.30;20.00;;;15.70;41.80;;;;;;5054484;28;20568;-76
2022/03/20 10:51:38;;;;;;;20.77;18.30;;;15.90;42.60;;;;;;5035837;28;20654;-76
2022/03/20 10:54:13;;;;;;;22.37;19.37;;;16.40;43.10;;;;;;5035767;28;20690;-78
2022/03/20 10:56:53;;;;;;;23.07;20.40;;;16.60;42.70;;;;;;5053698;28;20575;-77
2022/03/20 10:59:19;;;;;;;20.80;18.90;;;16.60;41.50;;;;;;5053307;28;20568;-77
2022/03/20 11:01:45;;;;;;;19.90;17.80;;;17.00;42.90;;;;;;5053125;28;20570;-77
2022/03/20 11:04:12;;;;;;;20.97;18.97;;;17.30;43.20;;;;;;5053574;28;20595;-77
2022/03/20 11:06:45;;;;;;;21.37;19.17;;;17.40;42.40;;;;;;5035620;28;20662;-77
2022/03/20 11:09:11;;;;;;;19.60;17.80;;;17.50;42.50;;;;;;5055971;28;20568;-77
2022/03/20 11:11:56;;;;;;;21.10;18.90;;;17.90;42.80;;;;;;5040291;28;20575;-77
2022/03/20 11:14:24;;;;;;;21.83;19.53;;;18.00;42.90;;;;;;5035935;28;20625;-76
2022/03/20 11:17:02;;;;;;;23.17;20.83;;;17.80;41.00;;;;;;5053035;28;20614;-75
2022/03/20 11:19:29;;;;;;;21.27;18.87;;;17.30;40.90;;;;;;5018788;28;20598;-75
2022/03/20 11:22:04;;;;;;;21.77;19.67;;;17.20;42.00;;;;;;5034705;28;20571;-74
2022/03/20 11:24:30;;;;;;;22.13;19.97;;;17.00;41.80;;;;;;5052714;28;20611;-74
2022/03/20 11:27:00;;;;;;;22.53;20.23;;;17.00;41.80;;;;;;5052892;28;20626;-74
2022/03/20 11:29:29;;;;;;;21.13;19.00;;;17.00;41.90;;;;;;5052895;28;20633;-75
2022/03/20 11:31:57;;;;;;;21.23;18.97;;;17.00;42.00;;;;;;5052402;28;21130;-76
2022/03/20 11:34:24;;;;;;;20.53;18.53;;;16.90;42.00;;;;;;5034816;28;20629;-75
2022/03/20 11:36:59;;;;;;;24.70;22.10;;;16.80;42.00;;;;;;5052343;28;20575;-75
2022/03/20 11:39:25;;;;;;;22.77;20.43;;;16.70;42.10;;;;;;5052725;28;20563;-75
2022/03/20 11:42:19;;;;;;;19.83;17.93;;;16.40;42.30;;;;;;5034301;28;20598;-75
2022/03/20 11:44:59;;;;;;;22.90;20.53;;;16.20;42.50;;;;;;5052275;28;20615;-75
2022/03/20 11:47:30;;;;;;;22.63;20.30;;;16.10;43.10;;;;;;5034825;28;20585;-75
2022/03/20 11:50:19;;;;;;;22.93;19.90;;;16.10;42.90;;;;;;5056235;28;20564;-75
2022/03/20 11:52:58;;;;;;;23.03;19.90;;;15.90;43.90;;;;;;5034478;28;20631;-75
2022/03/20 11:55:48;;;;;;;22.30;19.90;;;15.80;43.40;;;;;;5051673;28;20966;-75
2022/03/20 11:58:17;;;;;;;22.23;19.90;;;15.70;43.70;;;;;;5052365;28;20568;-75
2022/03/20 12:00:44;;;;;;;23.33;18.40;;;15.70;44.00;;;;;;5033874;28;21103;-75
2022/03/20 12:03:13;;;;;;;21.30;17.90;;;15.60;43.70;;;;;;5052199;28;21178;-75
2022/03/20 12:05:41;;;;;;;23.37;20.90;;;15.50;44.20;;;;;;5052299;28;20606;-75
2022/03/20 12:08:29;;;;;;;21.37;18.30;;;15.30;45.20;;;;;;5051996;28;20590;-75
2022/03/20 12:11:18;;;;;;;22.50;20.13;;;15.20;44.90;;;;;;5051760;28;20555;-76
2022/03/20 12:14:22;;;;;;;20.30;18.20;;;14.90;46.10;;;;;;5034724;28;20193;-76
2022/03/20 12:16:48;;;;;;;24.70;19.10;;;14.90;46.20;;;;;;5034409;28;20592;-76
2022/03/20 12:19:15;;;;;;;21.00;18.40;;;14.80;46.90;;;;;;5034208;28;20265;-77
2022/03/20 12:21:59;;;;;;;21.42;19.23;;;14.70;47.10;;;;;;5041651;28;20199;-76
2022/03/20 12:24:37;;;;;;;26.92;21.63;;;14.60;47.80;;;;;;5064913;28;20198;-76
2022/03/20 12:27:25;;;;;;;20.08;17.35;;;14.50;48.80;;;;;;5077372;28;20200;-77
2022/03/20 12:30:21;;;;;;;22.97;19.57;;;14.50;47.80;;;;;;5073856;28;20160;-76
2022/03/20 12:32:47;;;;;;;23.70;19.83;;;14.50;48.80;;;;;;5063523;28;20666;-77
2022/03/20 12:35:15;;;;;;;21.53;18.50;;;14.50;49.00;;;;;;5074750;28;20601;-76
2022/03/20 12:37:43;;;;;;;22.60;18.95;;;14.40;48.80;;;;;;5053628;28;20184;-77
2022/03/20 12:40:21;;;;;;;20.00;18.00;;;14.30;48.50;;;;;;5074484;28;20171;-76
2022/03/20 12:42:58;;;;;;;20.65;17.10;;;14.30;49.90;;;;;;5073131;28;20203;-77
2022/03/20 12:45:25;;;;;;;22.60;19.95;;;14.30;49.40;;;;;;5073172;28;20253;-76
2022/03/20 12:48:00;;;;;;;22.63;20.20;;;14.20;49.10;;;;;;5056109;28;20602;-76
2022/03/20 12:50:29;;;;;;;23.42;20.70;;;14.20;49.90;;;;;;5072730;28;20221;-76
2022/03/20 12:53:05;;;;;;;21.75;19.33;;;14.20;50.10;;;;;;5057296;28;20200;-76
2022/03/20 12:55:31;;;;;;;22.88;20.33;;;14.20;49.90;;;;;;5054060;28;20171;-76
2022/03/20 12:57:56;;;;;;;25.20;21.63;;;14.20;49.80;;;;;;5071553;28;20175;-76
2022/03/20 13:00:27;;;;;;;25.77;21.20;;;14.20;50.00;;;;;;5071039;28;20578;-76
2022/03/20 13:03:08;;;;;;;23.05;19.38;;;14.10;51.00;;;;;;5076108;28;20224;-76
2022/03/20 13:05:40;;;;;;;23.70;19.83;;;14.10;50.60;;;;;;5071564;28;20801;-76
2022/03/20 13:08:07;;;;;;;22.83;19.45;;;14.10;50.50;;;;;;5075005;28;20172;-76
2022/03/20 13:10:36;;;;;;;22.90;18.85;;;14.10;50.40;;;;;;5075201;28;20593;-75
2022/03/20 13:13:04;;;;;;;19.90;17.75;;;14.10;51.30;;;;;;5057224;28;20192;-77
2022/03/20 13:15:40;;;;;;;20.08;16.65;;;14.10;50.60;;;;;;5056443;28;20200;-77
2022/03/20 13:18:08;;;;;;;23.70;20.50;;;14.20;51.40;;;;;;5075281;28;20247;-76